Time;durP1;ratioP1;P1;durP2;ratioP2;P2;SDS_P1;SDS_P2;PMS_P1;PMS_P2;Temp;Humidity;BMP_temperature;BMP_pressure;BME280_temperature;BME280_humidity;BME280_pressure;Samples;Min_cycle;Max_cycle;Signal;HPM_P1;HPM_P2
2021/09/30 00:00:06;;;;;;;;;;;;;;;21.92;31.06;98765.72;4870115;29;664;-78
2021/09/30 00:02:31;;;;;;;;;;;;;;;21.86;31.21;98768.22;4869513;29;1911;-78
2021/09/30 00:04:57;;;;;;;;;;;;;;;21.95;30.95;98770.53;4869484;29;649;-78
2021/09/30 00:07:22;;;;;;;;;;;;;;;22.01;30.80;98774.47;4869720;29;936;-77
2021/09/30 00:09:48;;;;;;;;;;;;;;;21.92;31.03;98771.41;4869509;29;954;-78
2021/09/30 00:12:17;;;;;;;;;;;;;;;21.92;30.61;98765.72;4869192;29;1118;-78
2021/09/30 00:15:06;;;;;;;;;;;;;;;22.00;30.67;98764.38;4869047;29;1030;-77
2021/09/30 01:18:59;;;;;;;;;;;;;;;21.76;31.82;98770.00;4855316;29;1381;-79
2021/09/30 01:52:44;;;;;;;;;;;;;;;21.90;31.02;98773.84;4867686;29;657;-78
2021/09/30 02:20:18;;;;;;;;;;;;;;;21.66;31.36;98762.47;4854727;29;1304;-78
2021/09/30 02:22:27;;;;;;;;;;;;;;;21.86;31.71;98768.22;4860414;29;1171;-78
2021/09/30 02:30:08;;;;;;;;;;;;;;;22.56;32.37;98770.31;4866984;29;1251;-78
2021/09/30 03:00:21;;;;;;;;;;;;;;;21.96;32.08;98763.63;4855339;29;1294;-78
2021/09/30 03:02:48;;;;;;;;;;;;;;;21.86;32.17;98768.22;4866624;29;1895;-78
2021/09/30 03:05:16;;;;;;;;;;;;;;;22.03;31.80;98770.00;4867331;29;880;-78
2021/09/30 03:07:42;;;;;;;;;;;;;;;22.12;31.45;98760.16;4851600;29;1021;-78
2021/09/30 03:10:08;;;;;;;;;;;;;;;21.96;31.88;98763.63;4851142;29;1169;-78
2021/09/30 03:12:35;;;;;;;;;;;;;;;22.01;31.87;98763.13;4885948;29;1148;-78
2021/09/30 03:15:09;;;;;;;;;;;;;;;21.98;31.73;98758.34;4869962;29;1253;-77
2021/09/30 03:17:48;;;;;;;;;;;;;;;22.01;31.82;98765.97;4870039;29;1344;-78
2021/09/30 03:20:29;;;;;;;;;;;;;;;21.87;31.98;98764.19;4870525;29;882;-78
2021/09/30 03:22:58;;;;;;;;;;;;;;;21.93;32.04;98765.28;4870665;29;1907;-78
2021/09/30 03:25:24;;;;;;;;;;;;;;;22.05;31.32;98763.88;4870328;29;1127;-77
2021/09/30 03:27:50;;;;;;;;;;;;;;;22.00;31.38;98761.53;4869958;29;608;-77
2021/09/30 03:30:16;;;;;;;;;;;;;;;21.94;31.45;98766.09;4870062;29;647;-76
2021/09/30 03:32:41;;;;;;;;;;;;;;;21.94;31.78;98763.25;4885356;29;1116;-78
2021/09/30 03:35:13;;;;;;;;;;;;;;;21.94;31.68;98754.75;4869905;29;1205;-78
2021/09/30 03:37:39;;;;;;;;;;;;;;;22.01;31.32;98763.94;4885565;29;1324;-78
2021/09/30 03:40:05;;;;;;;;;;;;;;;21.97;31.56;98756.75;4870040;29;959;-77
2021/09/30 03:42:31;;;;;;;;;;;;;;;22.09;31.28;98771.09;4854476;29;1915;-78
2021/09/30 03:45:03;;;;;;;;;;;;;;;21.93;31.53;98767.34;4869988;29;1195;-77
2021/09/30 03:47:30;;;;;;;;;;;;;;;21.94;31.51;98774.59;4869610;29;1322;-77
2021/09/30 03:50:00;;;;;;;;;;;;;;;21.96;31.58;98772.13;4869100;29;1265;-77
2021/09/30 04:00:51;;;;;;;;;;;;;;;21.92;31.35;98777.06;4882688;29;1334;-77
2021/09/30 04:03:17;;;;;;;;;;;;;;;21.81;31.39;98780.88;4883763;29;1907;-78
2021/09/30 04:06:03;;;;;;;;;;;;;;;21.90;31.23;98776.69;4884565;29;1148;-78
2021/09/30 04:08:29;;;;;;;;;;;;;;;21.87;31.51;98777.56;4869478;29;1164;-77
2021/09/30 04:10:56;;;;;;;;;;;;;;;22.04;31.27;98768.75;4885113;29;1223;-77
2021/09/30 04:13:21;;;;;;;;;;;;;;;22.07;31.12;98772.75;4884887;29;1301;-77
2021/09/30 04:15:50;;;;;;;;;;;;;;;21.88;31.21;98768.63;4869209;29;1181;-78
2021/09/30 04:18:16;;;;;;;;;;;;;;;21.94;31.38;98769.72;4868542;29;1184;-77
2021/09/30 04:20:42;;;;;;;;;;;;;;;21.98;31.06;98775.34;4869268;29;853;-78
2021/09/30 04:23:07;;;;;;;;;;;;;;;21.75;31.62;98774.06;4869426;29;2043;-78
2021/09/30 04:25:36;;;;;;;;;;;;;;;21.81;31.29;98778.03;4884710;29;1297;-78
2021/09/30 04:28:02;;;;;;;;;;;;;;;21.89;31.37;98777.91;4883696;29;813;-78
2021/09/30 04:30:27;;;;;;;;;;;;;;;21.87;31.03;98780.38;4883779;29;1135;-77
2021/09/30 04:33:10;;;;;;;;;;;;;;;22.09;31.44;98788.09;4884017;29;1262;-78
2021/09/30 04:35:36;;;;;;;;;;;;;;;22.27;32.28;98781.38;4852970;29;1263;-77
2021/09/30 04:38:05;;;;;;;;;;;;;;;22.40;32.57;98784.41;4853415;29;1156;-77
2021/09/30 04:40:31;;;;;;;;;;;;;;;22.45;32.82;98786.75;4853168;29;1309;-77
2021/09/30 04:42:57;;;;;;;;;;;;;;;22.32;32.40;98784.50;4868749;29;1903;-78
2021/09/30 04:45:22;;;;;;;;;;;;;;;22.25;32.43;98798.81;4883555;29;766;-77
2021/09/30 04:47:52;;;;;;;;;;;;;;;22.22;32.27;98801.69;4868328;29;1032;-77
2021/09/30 04:50:17;;;;;;;;;;;;;;;22.00;32.44;98798.38;4868113;29;1277;-78
2021/09/30 04:52:44;;;;;;;;;;;;;;;21.97;32.68;98797.22;4868841;29;1167;-77
2021/09/30 04:55:09;;;;;;;;;;;;;;;22.04;32.52;98793.47;4883949;29;1193;-77
2021/09/30 04:57:35;;;;;;;;;;;;;;;21.96;32.57;98794.78;4868225;29;1206;-77
2021/09/30 05:00:01;;;;;;;;;;;;;;;21.92;32.47;98794.06;4884138;29;1136;-78
2021/09/30 05:02:42;;;;;;;;;;;;;;;21.93;32.55;98801.34;4868697;29;1903;-77
2021/09/30 05:05:09;;;;;;;;;;;;;;;22.05;32.19;98804.34;4867731;29;1187;-77
2021/09/30 05:07:35;;;;;;;;;;;;;;;21.90;32.60;98802.19;4867999;29;1142;-77
2021/09/30 05:10:04;;;;;;;;;;;;;;;22.02;32.29;98804.41;4883113;29;1143;-77
2021/09/30 05:12:30;;;;;;;;;;;;;;;22.07;31.82;98801.91;4868050;29;831;-76
2021/09/30 05:14:56;;;;;;;;;;;;;;;22.22;31.54;98808.16;4868232;29;1195;-78
2021/09/30 05:17:22;;;;;;;;;;;;;;;22.00;32.09;98807.69;4867874;29;1277;-78
2021/09/30 05:19:53;;;;;;;;;;;;;;;21.66;32.52;98815.47;4868421;29;858;-78
2021/09/30 05:22:18;;;;;;;;;;;;;;;21.88;32.22;98807.47;4883318;29;1218;-78
2021/09/30 05:24:44;;;;;;;;;;;;;;;21.73;32.27;98821.84;4867754;29;1939;-77
2021/09/30 05:27:10;;;;;;;;;;;;;;;21.97;31.97;98824.75;4883299;29;987;-77
2021/09/30 05:29:38;;;;;;;;;;;;;;;21.85;32.06;98838.25;4867848;29;1348;-77
2021/09/30 05:32:08;;;;;;;;;;;;;;;21.94;31.91;98831.25;4852964;29;1179;-79
2021/09/30 05:34:50;;;;;;;;;;;;;;;21.87;32.05;98826.50;4882432;29;1349;-77
2021/09/30 05:37:17;;;;;;;;;;;;;;;21.92;31.69;98822.41;4882989;29;1180;-77
2021/09/30 05:39:43;;;;;;;;;;;;;;;21.87;31.79;98831.38;4882950;29;1163;-77
2021/09/30 05:42:09;;;;;;;;;;;;;;;21.96;31.63;98817.47;4867823;29;1224;-78
2021/09/30 05:44:36;;;;;;;;;;;;;;;21.99;31.49;98819.44;4867376;29;1903;-75
2021/09/30 05:47:03;;;;;;;;;;;;;;;21.95;31.69;98810.19;4882280;29;1144;-76
2021/09/30 05:49:30;;;;;;;;;;;;;;;21.96;31.64;98812.59;4882758;29;1303;-77
2021/09/30 05:52:16;;;;;;;;;;;;;;;21.94;31.62;98817.09;4867255;29;982;-77
2021/09/30 05:54:53;;;;;;;;;;;;;;;21.93;31.59;98818.34;4867821;29;1182;-78
2021/09/30 05:57:27;;;;;;;;;;;;;;;21.93;31.44;98812.66;4867732;29;1226;-78
2021/09/30 05:59:53;;;;;;;;;;;;;;;21.97;31.53;98816.25;4882429;29;1247;-77
2021/09/30 06:10:21;;;;;;;;;;;;;;;21.98;31.28;98820.69;4867236;29;1345;-77
2021/09/30 06:12:57;;;;;;;;;;;;;;;22.00;31.26;98815.38;4882909;29;1136;-77
2021/09/30 06:15:27;;;;;;;;;;;;;;;21.93;31.56;98804.16;4867964;29;1003;-78
2021/09/30 06:17:55;;;;;;;;;;;;;;;21.96;31.63;98823.13;4866823;29;880;-78
2021/09/30 06:20:21;;;;;;;;;;;;;;;21.91;31.44;98815.09;4867667;29;871;-77
2021/09/30 06:22:46;;;;;;;;;;;;;;;21.84;31.47;98816.81;4867005;29;1990;-77
2021/09/30 06:25:12;;;;;;;;;;;;;;;21.90;31.53;98819.97;4882405;29;1903;-78
2021/09/30 06:27:38;;;;;;;;;;;;;;;21.96;31.22;98817.47;4882770;29;1277;-79
2021/09/30 06:30:04;;;;;;;;;;;;;;;21.98;31.44;98812.19;4882812;29;1119;-79
2021/09/30 06:32:32;;;;;;;;;;;;;;;21.98;31.51;98812.97;4867044;29;1412;-79
2021/09/30 06:35:35;;;;;;;;;;;;;;;21.76;31.73;98808.84;4829368;29;1013;-79
2021/09/30 06:38:01;;;;;;;;;;;;;;;21.90;31.63;98816.34;4829974;29;1177;-79
2021/09/30 06:40:32;;;;;;;;;;;;;;;21.91;31.49;98818.75;4847861;29;1226;-79
2021/09/30 06:42:58;;;;;;;;;;;;;;;22.02;31.33;98827.06;4881949;29;1915;-80
2021/09/30 06:45:42;;;;;;;;;;;;;;;22.14;30.93;98814.41;4869734;29;628;-78
2021/09/30 06:48:07;;;;;;;;;;;;;;;22.08;31.36;98811.22;4870967;29;916;-79
2021/09/30 06:50:46;;;;;;;;;;;;;;;22.00;31.45;98818.22;4870233;29;1490;-79
2021/09/30 06:53:23;;;;;;;;;;;;;;;21.90;31.27;98819.19;4886342;29;1255;-79
2021/09/30 06:56:10;;;;;;;;;;;;;;;22.05;31.34;98820.56;4871166;29;595;-79
2021/09/30 06:58:54;;;;;;;;;;;;;;;21.92;31.41;98813.91;4871081;29;670;-77
2021/09/30 07:01:40;;;;;;;;;;;;;;;21.96;31.25;98817.47;4851519;29;1140;-79
2021/09/30 07:04:12;;;;;;;;;;;;;;;21.87;31.47;98811.56;4870814;29;1981;-79
2021/09/30 07:06:51;;;;;;;;;;;;;;;22.33;32.25;98823.00;4876505;29;1147;-78
2021/09/30 07:09:18;;;;;;;;;;;;;;;22.53;32.62;98816.56;4874808;29;1456;-78
2021/09/30 07:11:43;;;;;;;;;;;;;;;22.60;33.17;98827.81;4860580;29;1375;-79
2021/09/30 07:14:09;;;;;;;;;;;;;;;22.31;33.42;98811.25;4860909;29;1150;-79
2021/09/30 07:16:34;;;;;;;;;;;;;;;22.12;33.60;98819.69;4859486;29;1174;-78
2021/09/30 07:19:00;;;;;;;;;;;;;;;22.16;33.03;98809.09;4861017;29;1205;-79
2021/09/30 07:21:26;;;;;;;;;;;;;;;22.25;32.74;98818.66;4860370;29;1210;-77
2021/09/30 07:23:51;;;;;;;;;;;;;;;22.13;32.42;98821.31;4859727;29;1911;-79
2021/09/30 07:26:16;;;;;;;;;;;;;;;22.22;32.48;98825.16;4861201;29;1289;-78
2021/09/30 07:28:42;;;;;;;;;;;;;;;22.22;32.19;98822.34;4859718;29;1175;-79
2021/09/30 07:31:07;;;;;;;;;;;;;;;22.28;31.92;98823.47;4860286;29;1189;-78
2021/09/30 07:33:33;;;;;;;;;;;;;;;22.10;32.33;98820.09;4860833;29;1246;-79
2021/09/30 07:35:58;;;;;;;;;;;;;;;22.05;32.24;98820.56;4858726;29;1285;-78
2021/09/30 07:38:25;;;;;;;;;;;;;;;22.14;32.07;98829.38;4860637;29;1162;-79
2021/09/30 07:40:50;;;;;;;;;;;;;;;21.97;32.27;98824.75;4860783;29;1186;-79
2021/09/30 07:43:15;;;;;;;;;;;;;;;22.00;32.01;98832.38;4861772;29;1907;-79
2021/09/30 07:45:41;;;;;;;;;;;;;;;21.99;32.42;98833.63;4870342;29;684;-78
2021/09/30 07:48:06;;;;;;;;;;;;;;;21.94;32.11;98836.94;4870014;29;950;-79
2021/09/30 07:50:32;;;;;;;;;;;;;;;21.98;32.11;98832.03;4869929;29;899;-79
2021/09/30 07:52:57;;;;;;;;;;;;;;;21.66;32.44;98838.94;4870198;29;836;-78
2021/09/30 07:55:23;;;;;;;;;;;;;;;22.00;32.07;98841.69;4870175;29;650;-79
2021/09/30 07:57:49;;;;;;;;;;;;;;;22.06;31.71;98842.81;4869763;29;644;-79
2021/09/30 08:00:14;;;;;;;;;;;;;;;22.14;31.75;98843.53;4869137;29;952;-79
2021/09/30 08:02:40;;;;;;;;;;;;;;;22.08;31.65;98848.06;4869779;29;1903;-79
2021/09/30 08:05:05;;;;;;;;;;;;;;;22.01;31.97;98848.94;4869915;29;865;-79
2021/09/30 08:07:31;;;;;;;;;;;;;;;21.99;31.90;98856.28;4870408;29;1029;-77
2021/09/30 08:09:56;;;;;;;;;;;;;;;22.14;32.25;98856.91;4869282;29;1445;-78
2021/09/30 08:12:23;;;;;;;;;;;;;;;22.25;32.31;98849.84;4866811;29;640;-78
2021/09/30 08:14:48;;;;;;;;;;;;;;;22.29;32.69;98859.09;4869843;29;980;-79
2021/09/30 08:17:14;;;;;;;;;;;;;;;22.29;32.39;98859.09;4869880;29;692;-79
2021/09/30 08:19:39;;;;;;;;;;;;;;;22.08;32.66;98853.72;4884317;29;1090;-79
2021/09/30 08:22:05;;;;;;;;;;;;;;;22.12;32.62;98854.47;4869509;29;866;-78
2021/09/30 08:24:30;;;;;;;;;;;;;;;22.00;32.82;98857.88;4869650;29;1915;-79
2021/09/30 08:26:56;;;;;;;;;;;;;;;22.06;32.15;98856.97;4884199;29;868;-79
2021/09/30 08:29:21;;;;;;;;;;;;;;;22.05;32.12;98860.25;4869648;29;625;-79
2021/09/30 08:31:47;;;;;;;;;;;;;;;22.24;31.87;98856.75;4869465;29;956;-79
2021/09/30 08:34:12;;;;;;;;;;;;;;;22.11;32.08;98867.06;4869310;29;900;-79
2021/09/30 08:36:37;;;;;;;;;;;;;;;21.98;31.94;98868.88;4869385;29;911;-79
2021/09/30 08:39:03;;;;;;;;;;;;;;;21.93;32.30;98863.66;4869491;29;489;-79
2021/09/30 08:41:29;;;;;;;;;;;;;;;21.97;31.83;98864.44;4884005;29;765;-79
2021/09/30 08:43:54;;;;;;;;;;;;;;;22.00;31.67;98863.56;4869324;29;1976;-79
2021/09/30 08:46:20;;;;;;;;;;;;;;;22.00;31.96;98866.38;4869441;29;813;-79
2021/09/30 08:48:47;;;;;;;;;;;;;;;22.06;31.38;98859.81;4869004;29;1075;-79
2021/09/30 08:51:13;;;;;;;;;;;;;;;22.04;31.46;98864.31;4883411;29;969;-80
2021/09/30 08:53:38;;;;;;;;;;;;;;;22.10;31.50;98862.59;4883727;29;875;-79
2021/09/30 08:56:05;;;;;;;;;;;;;;;22.08;31.70;98862.22;4869132;29;645;-79
2021/09/30 08:58:30;;;;;;;;;;;;;;;21.90;31.93;98870.19;4869436;29;614;-79
2021/09/30 09:00:58;;;;;;;;;;;;;;;22.04;31.33;98864.31;4869171;29;596;-79
2021/09/30 09:03:31;;;;;;;;;;;;;;;22.11;31.48;98864.22;4868714;29;1974;-79
2021/09/30 09:05:56;;;;;;;;;;;;;;;22.03;31.57;98868.38;4883298;29;819;-79
2021/09/30 09:08:21;;;;;;;;;;;;;;;22.15;31.25;98870.66;4868998;29;847;-79
2021/09/30 09:10:50;;;;;;;;;;;;;;;22.10;31.30;98868.25;4883341;29;890;-79
2021/09/30 09:13:18;;;;;;;;;;;;;;;22.08;31.44;98867.91;4883319;29;754;-79
2021/09/30 09:15:47;;;;;;;;;;;;;;;21.94;31.37;98876.59;4868687;29;1007;-79
2021/09/30 09:18:22;;;;;;;;;;;;;;;21.90;31.46;98870.97;4868388;29;917;-79
2021/09/30 09:20:48;;;;;;;;;;;;;;;21.95;31.54;98869.69;4868402;29;863;-80
2021/09/30 09:23:13;;;;;;;;;;;;;;;22.06;31.17;98876.81;4883464;29;1911;-79
2021/09/30 09:25:39;;;;;;;;;;;;;;;22.17;31.32;98873.84;4883341;29;755;-78
2021/09/30 09:28:04;;;;;;;;;;;;;;;22.04;31.19;98875.66;4868597;29;688;-77
2021/09/30 09:30:30;;;;;;;;;;;;;;;21.99;31.42;98867.63;4868877;29;684;-79
2021/09/30 09:32:59;;;;;;;;;;;;;;;21.99;31.53;98873.28;4868293;29;893;-80
2021/09/30 09:35:24;;;;;;;;;;;;;;;22.11;31.00;98864.22;4882726;29;895;-80
2021/09/30 09:37:52;;;;;;;;;;;;;;;22.03;31.12;98862.72;4868319;29;989;-79
2021/09/30 09:40:18;;;;;;;;;;;;;;;22.14;31.08;98857.72;4868409;29;680;-79
2021/09/30 09:42:45;;;;;;;;;;;;;;;21.69;31.90;98860.75;4868532;29;1915;-79
2021/09/30 09:45:13;;;;;;;;;;;;;;;21.85;31.60;98858.09;4868328;29;648;-80
2021/09/30 09:47:39;;;;;;;;;;;;;;;21.96;31.11;98851.47;4882601;29;949;-80
2021/09/30 09:50:07;;;;;;;;;;;;;;;21.91;31.52;98863.28;4882415;29;908;-79
2021/09/30 09:52:39;;;;;;;;;;;;;;;21.99;31.15;98856.28;4868117;29;926;-79
2021/09/30 09:55:09;;;;;;;;;;;;;;;21.97;31.29;98875.75;4868246;29;648;-79
2021/09/30 09:57:36;;;;;;;;;;;;;;;21.99;31.28;98867.63;4868173;29;667;-79
2021/09/30 10:00:09;;;;;;;;;;;;;;;21.96;31.22;98862.78;4867984;29;620;-80
2021/09/30 10:02:38;;;;;;;;;;;;;;;21.94;31.23;98859.59;4867791;29;1978;-79
2021/09/30 10:05:04;;;;;;;;;;;;;;;22.02;31.13;98861.91;4867800;29;832;-79
2021/09/30 10:07:29;;;;;;;;;;;;;;;21.89;31.26;98862.91;4882820;29;875;-79
2021/09/30 10:09:55;;;;;;;;;;;;;;;21.99;31.14;98861.97;4882733;29;634;-79
2021/09/30 10:12:21;;;;;;;;;;;;;;;22.02;30.99;98849.75;4867762;29;697;-78
2021/09/30 10:14:49;;;;;;;;;;;;;;;22.13;30.92;98853.28;4882410;29;1303;-78
2021/09/30 10:17:14;;;;;;;;;;;;;;;22.11;31.05;98852.88;4901502;29;736;-80
2021/09/30 10:19:40;;;;;;;;;;;;;;;22.02;31.41;98861.09;4885825;29;933;-79
2021/09/30 10:22:05;;;;;;;;;;;;;;;22.00;31.40;98858.69;4886135;29;837;-79
2021/09/30 10:24:31;;;;;;;;;;;;;;;21.91;31.30;98854.78;4886334;29;1968;-79
2021/09/30 10:26:56;;;;;;;;;;;;;;;22.07;31.35;98858.59;4901315;29;700;-79
2021/09/30 10:29:35;;;;;;;;;;;;;;;22.04;31.52;98847.31;4886419;29;652;-79
2021/09/30 10:32:01;;;;;;;;;;;;;;;21.94;31.37;98865.28;4886448;29;728;-79
2021/09/30 10:34:30;;;;;;;;;;;;;;;21.91;31.76;98871.78;4886211;29;832;-79
2021/09/30 10:36:55;;;;;;;;;;;;;;;21.92;31.63;98884.75;4886007;29;929;-79
2021/09/30 10:39:25;;;;;;;;;;;;;;;22.03;31.55;98885.38;4900915;29;989;-78
2021/09/30 10:41:55;;;;;;;;;;;;;;;21.95;31.34;98884.66;4900748;29;828;-79
2021/09/30 10:44:21;;;;;;;;;;;;;;;22.01;31.22;98882.16;4886142;29;1966;-80
2021/09/30 10:46:48;;;;;;;;;;;;;;;21.91;31.65;98883.09;4901044;29;708;-79
2021/09/30 10:49:30;;;;;;;;;;;;;;;21.99;31.45;98891.09;4900357;29;853;-79
2021/09/30 10:52:14;;;;;;;;;;;;;;;22.00;31.23;98886.22;4900255;29;845;-79
2021/09/30 10:54:39;;;;;;;;;;;;;;;21.90;31.71;98895.69;4886234;29;667;-79
2021/09/30 10:57:25;;;;;;;;;;;;;;;21.94;31.54;98887.94;4886022;29;680;-80
2021/09/30 10:59:51;;;;;;;;;;;;;;;22.36;31.89;98890.16;4882448;29;979;-80
2021/09/30 11:02:16;;;;;;;;;;;;;;;22.55;32.79;98890.69;4900494;29;781;-79
2021/09/30 11:05:01;;;;;;;;;;;;;;;22.53;33.32;98890.31;4900483;29;1903;-80
2021/09/30 11:07:26;;;;;;;;;;;;;;;22.38;33.14;98877.59;4885902;29;918;-80
2021/09/30 11:10:10;;;;;;;;;;;;;;;22.29;32.96;98878.16;4885946;29;656;-80
2021/09/30 11:12:35;;;;;;;;;;;;;;;22.03;32.82;98868.38;4886080;29;1010;-80
2021/09/30 11:15:01;;;;;;;;;;;;;;;22.06;32.82;98873.97;4900318;29;1017;-79
2021/09/30 11:17:39;;;;;;;;;;;;;;;22.05;32.87;98877.25;4886110;29;660;-79
2021/09/30 11:20:35;;;;;;;;;;;;;;;21.94;33.10;98876.59;4900182;29;932;-79
2021/09/30 11:23:00;;;;;;;;;;;;;;;21.93;32.91;98869.34;4881533;29;1978;-79
2021/09/30 11:25:44;;;;;;;;;;;;;;;22.00;32.74;98870.03;4885793;29;712;-80
2021/09/30 11:28:13;;;;;;;;;;;;;;;21.96;32.79;98862.78;4885894;29;696;-79
2021/09/30 11:30:38;;;;;;;;;;;;;;;21.94;32.72;98853.94;4900495;29;787;-79
2021/09/30 11:33:06;;;;;;;;;;;;;;;22.07;32.70;98846.44;4888445;29;1026;-79
2021/09/30 11:35:32;;;;;;;;;;;;;;;21.97;32.44;98859.56;4903635;29;922;-79
2021/09/30 11:37:57;;;;;;;;;;;;;;;21.96;32.64;98857.94;4889032;29;803;-79
2021/09/30 11:40:23;;;;;;;;;;;;;;;22.10;32.33;98863.44;4904068;29;665;-80
2021/09/30 11:42:50;;;;;;;;;;;;;;;21.91;32.45;98858.41;4889188;29;1907;-79
2021/09/30 11:45:16;;;;;;;;;;;;;;;22.08;32.46;98859.41;4903947;29;704;-79
2021/09/30 11:47:42;;;;;;;;;;;;;;;22.00;32.28;98860.72;4889059;29;723;-79
2021/09/30 11:50:09;;;;;;;;;;;;;;;22.00;32.65;98857.88;4889084;29;627;-80
2021/09/30 11:52:34;;;;;;;;;;;;;;;22.03;32.62;98848.53;4888843;29;942;-79
2021/09/30 11:55:16;;;;;;;;;;;;;;;21.97;32.62;98853.09;4888985;29;887;-79
2021/09/30 11:57:50;;;;;;;;;;;;;;;21.91;32.74;98854.78;4888870;29;772;-80
2021/09/30 12:00:16;;;;;;;;;;;;;;;22.01;32.08;98848.16;4903579;29;755;-79
2021/09/30 12:03:00;;;;;;;;;;;;;;;21.99;32.24;98854.25;4888716;29;1915;-80
2021/09/30 12:05:28;;;;;;;;;;;;;;;21.99;32.15;98853.47;4888617;29;739;-78
2021/09/30 12:07:54;;;;;;;;;;;;;;;22.01;32.08;98865.94;4888286;29;1000;-79
2021/09/30 12:10:19;;;;;;;;;;;;;;;22.04;31.78;98856.59;4903241;29;914;-79
2021/09/30 12:12:46;;;;;;;;;;;;;;;21.96;32.29;98865.63;4888521;29;811;-79
2021/09/30 12:15:11;;;;;;;;;;;;;;;22.00;32.08;98855.06;4888251;29;1133;-79
2021/09/30 12:17:38;;;;;;;;;;;;;;;21.99;31.93;98859.13;4903754;29;973;-79
2021/09/30 12:20:05;;;;;;;;;;;;;;;22.03;31.89;98857.03;4888465;29;664;-79
2021/09/30 12:22:39;;;;;;;;;;;;;;;22.02;31.92;98856.25;4903049;29;944;-79
2021/09/30 12:25:05;;;;;;;;;;;;;;;21.90;32.33;98856.00;4888037;29;1911;-79
2021/09/30 12:27:31;;;;;;;;;;;;;;;21.99;32.02;98873.28;4888338;29;644;-79
2021/09/30 12:30:03;;;;;;;;;;;;;;;22.07;31.71;98869.09;4903142;29;839;-79
2021/09/30 12:32:31;;;;;;;;;;;;;;;22.15;31.49;98864.97;4888355;29;636;-79
2021/09/30 12:35:01;;;;;;;;;;;;;;;22.00;31.94;98863.56;4903098;29;743;-80
2021/09/30 12:37:29;;;;;;;;;;;;;;;21.98;31.74;98866.03;4887794;29;910;-79
2021/09/30 12:39:59;;;;;;;;;;;;;;;21.88;31.65;98869.81;4887874;29;910;-79
2021/09/30 12:42:24;;;;;;;;;;;;;;;21.90;31.97;98864.50;4887903;29;1013;-80
2021/09/30 12:44:50;;;;;;;;;;;;;;;21.95;31.85;98864.03;4887888;29;1903;-80
2021/09/30 12:47:31;;;;;;;;;;;;;;;21.89;31.84;98854.41;4888148;29;760;-80
2021/09/30 12:49:57;;;;;;;;;;;;;;;21.87;31.73;98865.38;4902795;29;829;-80
2021/09/30 12:52:23;;;;;;;;;;;;;;;21.96;31.74;98862.78;4902549;29;1182;-80
2021/09/30 12:54:49;;;;;;;;;;;;;;;21.99;31.38;98865.59;4888170;29;813;-79
2021/09/30 12:57:14;;;;;;;;;;;;;;;21.92;31.60;98873.41;4887638;29;994;-79
2021/09/30 13:00:00;;;;;;;;;;;;;;;21.94;31.52;98866.06;4887780;29;700;-80
2021/09/30 13:02:25;;;;;;;;;;;;;;;21.92;31.67;98867.75;4887647;29;1001;-80
2021/09/30 13:04:51;;;;;;;;;;;;;;;22.02;31.39;98867.59;4887662;29;1915;-80
2021/09/30 13:07:18;;;;;;;;;;;;;;;21.90;31.52;98867.34;4887351;29;940;-79
2021/09/30 13:09:44;;;;;;;;;;;;;;;21.92;31.63;98862.06;4901687;29;940;-80
2021/09/30 13:12:10;;;;;;;;;;;;;;;21.92;31.84;98857.19;4887679;29;971;-80
2021/09/30 13:14:38;;;;;;;;;;;;;;;22.00;31.66;98863.56;4902206;29;983;-79
2021/09/30 13:17:06;;;;;;;;;;;;;;;21.93;31.79;98858.00;4902230;29;1305;-80
2021/09/30 13:19:38;;;;;;;;;;;;;;;21.94;31.81;98859.59;4887413;29;640;-80
2021/09/30 13:22:04;;;;;;;;;;;;;;;21.93;31.64;98858.00;4887047;29;971;-80
2021/09/30 13:24:32;;;;;;;;;;;;;;;21.92;31.99;98850.75;4886991;29;2273;-79
2021/09/30 13:26:57;;;;;;;;;;;;;;;21.97;31.92;98858.75;4901899;29;778;-79
2021/09/30 13:29:23;;;;;;;;;;;;;;;21.91;31.90;98849.91;4887559;29;700;-80
2021/09/30 13:31:49;;;;;;;;;;;;;;;22.04;31.80;98852.97;4886171;29;844;-79
2021/09/30 13:34:14;;;;;;;;;;;;;;;22.00;31.97;98857.88;4887259;29;832;-80
2021/09/30 13:36:40;;;;;;;;;;;;;;;22.14;31.69;98860.53;4886661;29;1002;-80
2021/09/30 13:39:05;;;;;;;;;;;;;;;21.93;31.63;98863.66;4886931;29;870;-80
2021/09/30 13:41:31;;;;;;;;;;;;;;;22.00;31.56;98864.34;4886940;29;952;-80
2021/09/30 13:43:56;;;;;;;;;;;;;;;22.16;31.53;98855.25;4886933;29;1927;-79
2021/09/30 13:46:22;;;;;;;;;;;;;;;21.93;31.77;98852.34;4886933;29;646;-80
2021/09/30 13:48:47;;;;;;;;;;;;;;;21.94;31.68;98859.59;4887002;29;648;-79
2021/09/30 13:51:13;;;;;;;;;;;;;;;21.88;32.00;98845.13;4900877;29;1112;-80
2021/09/30 13:53:38;;;;;;;;;;;;;;;21.81;31.95;98862.19;4900714;29;985;-80
2021/09/30 13:56:03;;;;;;;;;;;;;;;21.69;32.36;98860.75;4886507;29;1115;-80
2021/09/30 13:58:32;;;;;;;;;;;;;;;21.87;31.99;98856.88;4886866;29;700;-80
2021/09/30 14:00:58;;;;;;;;;;;;;;;22.10;31.35;98862.59;4886872;29;723;-80
2021/09/30 14:03:23;;;;;;;;;;;;;;;21.88;31.81;98861.31;4901142;29;1899;-79
2021/09/30 14:05:49;;;;;;;;;;;;;;;21.85;31.66;98868.63;4886341;29;948;-79
2021/09/30 14:08:17;;;;;;;;;;;;;;;22.00;31.40;98872.06;4886432;29;934;-79
2021/09/30 14:10:42;;;;;;;;;;;;;;;22.01;31.21;98870.81;4886698;29;930;-80
2021/09/30 14:13:08;;;;;;;;;;;;;;;21.63;32.16;98858.81;4886505;29;668;-79
2021/09/30 14:15:35;;;;;;;;;;;;;;;22.02;31.66;98863.91;4886367;29;1006;-79
2021/09/30 14:18:00;;;;;;;;;;;;;;;22.00;31.68;98860.72;4886513;29;645;-80
2021/09/30 14:20:26;;;;;;;;;;;;;;;21.89;31.91;98860.06;4886372;29;1034;-80
2021/09/30 14:22:51;;;;;;;;;;;;;;;21.92;31.57;98862.06;4886209;29;1899;-79
2021/09/30 14:25:17;;;;;;;;;;;;;;;21.94;31.49;98859.59;4886453;29;1039;-80
2021/09/30 14:27:42;;;;;;;;;;;;;;;22.07;31.44;98854.94;4886394;29;804;-79
2021/09/30 14:30:08;;;;;;;;;;;;;;;21.94;31.76;98853.94;4900845;29;852;-80
2021/09/30 14:32:33;;;;;;;;;;;;;;;21.89;31.55;98857.25;4886495;29;612;-80
2021/09/30 14:34:59;;;;;;;;;;;;;;;21.85;31.90;98854.44;4886204;29;723;-79
2021/09/30 14:37:24;;;;;;;;;;;;;;;22.00;31.54;98838.06;4885928;29;1120;-79
2021/09/30 14:39:50;;;;;;;;;;;;;;;21.87;31.76;98835.00;4885928;29;949;-80
2021/09/30 14:42:15;;;;;;;;;;;;;;;21.97;31.46;98833.25;4886318;29;991;-79
2021/09/30 14:44:41;;;;;;;;;;;;;;;21.98;31.55;98843.34;4886239;29;1915;-79
2021/09/30 14:47:06;;;;;;;;;;;;;;;21.97;31.20;98839.72;4886207;29;672;-79
2021/09/30 14:49:37;;;;;;;;;;;;;;;21.79;31.64;98837.13;4886194;29;680;-79
2021/09/30 14:52:03;;;;;;;;;;;;;;;21.95;31.47;98844.19;4885905;29;928;-79
2021/09/30 14:54:28;;;;;;;;;;;;;;;21.87;31.42;98842.72;4885921;29;897;-79
2021/09/30 14:56:54;;;;;;;;;;;;;;;22.08;31.21;98836.72;4886152;29;853;-79
2021/09/30 14:59:19;;;;;;;;;;;;;;;21.99;31.33;98833.63;4886103;29;666;-79
2021/09/30 15:01:45;;;;;;;;;;;;;;;21.91;31.39;98844.25;4885907;29;700;-79
2021/09/30 15:04:10;;;;;;;;;;;;;;;22.02;31.27;98844.91;4900461;29;1970;-79
2021/09/30 15:06:38;;;;;;;;;;;;;;;21.95;31.08;98841.38;4903115;29;972;-78
2021/09/30 15:09:03;;;;;;;;;;;;;;;21.96;31.31;98837.28;4889334;29;914;-79
2021/09/30 15:11:29;;;;;;;;;;;;;;;21.74;31.37;98839.63;4904482;29;1010;-79
2021/09/30 15:13:54;;;;;;;;;;;;;;;21.67;31.40;98837.72;4889392;29;1125;-79
2021/09/30 15:16:20;;;;;;;;;;;;;;;21.88;31.03;98844.31;4889619;29;704;-78
2021/09/30 15:21:20;;;;;;;;;;;;;;;21.88;31.27;98847.16;4889061;29;1055;-79
2021/09/30 15:23:46;;;;;;;;;;;;;;;21.90;30.91;98842.66;4903168;29;1911;-79
2021/09/30 15:26:16;;;;;;;;;;;;;;;21.97;31.01;98836.88;4889287;29;608;-79
2021/09/30 15:28:41;;;;;;;;;;;;;;;22.03;30.65;98848.53;4876861;29;1083;-79
2021/09/30 15:31:07;;;;;;;;;;;;;;;22.08;30.76;98848.84;4870221;29;732;-80
2021/09/30 15:33:33;;;;;;;;;;;;;;;21.94;30.85;98848.28;4870566;29;640;-79
2021/09/30 15:35:59;;;;;;;;;;;;;;;21.88;31.07;98856.44;4870384;29;842;-80
2021/09/30 15:38:26;;;;;;;;;;;;;;;22.05;30.80;98855.38;4870321;29;899;-79
2021/09/30 15:40:53;;;;;;;;;;;;;;;21.95;31.08;98858.38;4870647;29;885;-79
2021/09/30 15:43:19;;;;;;;;;;;;;;;21.88;31.05;98864.94;4870448;29;1903;-79
2021/09/30 15:45:45;;;;;;;;;;;;;;;21.93;30.82;98858.81;4870447;29;670;-80
2021/09/30 15:48:11;;;;;;;;;;;;;;;22.14;30.49;98851.25;4869705;29;653;-80
2021/09/30 15:50:36;;;;;;;;;;;;;;;22.04;30.64;98855.81;4870108;29;1055;-79
2021/09/30 15:53:01;;;;;;;;;;;;;;;22.06;30.78;98856.97;4870161;29;900;-79
2021/09/30 15:55:27;;;;;;;;;;;;;;;22.20;31.72;98861.66;4870269;29;1005;-80